sensor_id;sensor_type;location;lat;lon;timestamp;temperature;humidity
19200;DHT22;9732;52.498;5.408;2023-04-07T00:00:47;9.20;99.90
19200;DHT22;9732;52.498;5.408;2023-04-07T00:03:14;9.20;99.90
19200;DHT22;9732;52.498;5.408;2023-04-07T00:05:40;9.20;99.90
19200;DHT22;9732;52.498;5.408;2023-04-07T00:08:09;9.10;99.90
19200;DHT22;9732;52.498;5.408;2023-04-07T00:10:35;9.10;99.90
19200;DHT22;9732;52.498;5.408;2023-04-07T00:13:02;9.10;99.90
19200;DHT22;9732;52.498;5.408;2023-04-07T00:15:29;9.20;99.90
19200;DHT22;9732;52.498;5.408;2023-04-07T00:17:56;9.10;99.90
19200;DHT22;9732;52.498;5.408;2023-04-07T00:20:22;9.20;99.90
19200;DHT22;9732;52.498;5.408;2023-04-07T00:22:49;9.20;99.90
19200;DHT22;9732;52.498;5.408;2023-04-07T00:25:17;9.20;99.90
19200;DHT22;9732;52.498;5.408;2023-04-07T00:27:44;9.20;99.90
19200;DHT22;9732;52.498;5.408;2023-04-07T00:30:11;9.20;99.90
19200;DHT22;9732;52.498;5.408;2023-04-07T00:32:39;9.20;99.90
19200;DHT22;9732;52.498;5.408;2023-04-07T00:35:07;9.20;99.90
19200;DHT22;9732;52.498;5.408;2023-04-07T00:37:33;9.20;99.90
19200;DHT22;9732;52.498;5.408;2023-04-07T00:40:00;9.20;99.90
19200;DHT22;9732;52.498;5.408;2023-04-07T00:42:29;9.20;99.90
19200;DHT22;9732;52.498;5.408;2023-04-07T00:44:56;9.20;99.90
19200;DHT22;9732;52.498;5.408;2023-04-07T00:47:23;9.20;99.90
19200;DHT22;9732;52.498;5.408;2023-04-07T00:49:50;9.20;99.90
19200;DHT22;9732;52.498;5.408;2023-04-07T00:52:16;9.30;99.90
19200;DHT22;9732;52.498;5.408;2023-04-07T00:54:45;9.30;99.90
19200;DHT22;9732;52.498;5.408;2023-04-07T00:57:12;9.20;99.90
19200;DHT22;9732;52.498;5.408;2023-04-07T00:59:40;9.30;99.90
19200;DHT22;9732;52.498;5.408;2023-04-07T01:02:09;9.30;99.90
19200;DHT22;9732;52.498;5.408;2023-04-07T01:04:41;9.30;99.90
19200;DHT22;9732;52.498;5.408;2023-04-07T01:07:14;9.30;99.90
19200;DHT22;9732;52.498;5.408;2023-04-07T01:09:46;9.30;99.90
19200;DHT22;9732;52.498;5.408;2023-04-07T01:12:20;9.30;99.90
19200;DHT22;9732;52.498;5.408;2023-04-07T01:14:54;9.30;99.90
19200;DHT22;9732;52.498;5.408;2023-04-07T01:17:25;9.30;99.90
19200;DHT22;9732;52.498;5.408;2023-04-07T01:19:56;9.30;99.90
19200;DHT22;9732;52.498;5.408;2023-04-07T01:22:27;9.20;99.90
19200;DHT22;9732;52.498;5.408;2023-04-07T01:25:22;9.20;99.90
19200;DHT22;9732;52.498;5.408;2023-04-07T01:27:59;9.20;99.90
19200;DHT22;9732;52.498;5.408;2023-04-07T01:30:30;9.20;99.90
19200;DHT22;9732;52.498;5.408;2023-04-07T01:32:58;9.20;99.90
19200;DHT22;9732;52.498;5.408;2023-04-07T01:35:28;9.20;99.90
19200;DHT22;9732;52.498;5.408;2023-04-07T01:37:56;9.20;99.90
19200;DHT22;9732;52.498;5.408;2023-04-07T01:40:25;9.10;99.90
19200;DHT22;9732;52.498;5.408;2023-04-07T01:42:52;9.20;99.90
19200;DHT22;9732;52.498;5.408;2023-04-07T01:45:20;9.20;99.90
19200;DHT22;9732;52.498;5.408;2023-04-07T01:47:49;9.20;99.90
19200;DHT22;9732;52.498;5.408;2023-04-07T01:50:16;9.20;99.90
19200;DHT22;9732;52.498;5.408;2023-04-07T01:52:43;9.30;99.90
19200;DHT22;9732;52.498;5.408;2023-04-07T01:55:10;9.30;99.90
19200;DHT22;9732;52.498;5.408;2023-04-07T01:57:37;9.30;99.90
19200;DHT22;9732;52.498;5.408;2023-04-07T02:00:06;9.30;99.90
19200;DHT22;9732;52.498;5.408;2023-04-07T02:02:35;9.30;99.90
19200;DHT22;9732;52.498;5.408;2023-04-07T02:05:11;9.30;99.90
19200;DHT22;9732;52.498;5.408;2023-04-07T02:07:44;9.30;99.90
19200;DHT22;9732;52.498;5.408;2023-04-07T02:10:15;9.40;99.90
19200;DHT22;9732;52.498;5.408;2023-04-07T02:12:44;9.40;99.90
19200;DHT22;9732;52.498;5.408;2023-04-07T02:15:12;9.40;99.90
19200;DHT22;9732;52.498;5.408;2023-04-07T02:17:41;9.30;99.90
19200;DHT22;9732;52.498;5.408;2023-04-07T02:20:11;9.30;99.90
19200;DHT22;9732;52.498;5.408;2023-04-07T02:22:38;9.30;99.90
19200;DHT22;9732;52.498;5.408;2023-04-07T02:25:20;9.20;99.90
19200;DHT22;9732;52.498;5.408;2023-04-07T02:27:46;9.30;99.90
19200;DHT22;9732;52.498;5.408;2023-04-07T02:30:13;9.30;99.90
19200;DHT22;9732;52.498;5.408;2023-04-07T02:32:40;9.30;99.90
19200;DHT22;9732;52.498;5.408;2023-04-07T02:35:07;9.30;99.90
19200;DHT22;9732;52.498;5.408;2023-04-07T02:37:35;9.30;99.90
19200;DHT22;9732;52.498;5.408;2023-04-07T02:40:02;9.30;99.90
19200;DHT22;9732;52.498;5.408;2023-04-07T02:42:29;9.30;99.90
19200;DHT22;9732;52.498;5.408;2023-04-07T02:44:56;9.30;99.90
19200;DHT22;9732;52.498;5.408;2023-04-07T02:47:22;9.40;99.90
19200;DHT22;9732;52.498;5.408;2023-04-07T02:49:49;9.40;99.90
19200;DHT22;9732;52.498;5.408;2023-04-07T02:52:16;9.30;99.90
19200;DHT22;9732;52.498;5.408;2023-04-07T02:54:44;9.40;99.90
19200;DHT22;9732;52.498;5.408;2023-04-07T02:57:12;9.30;99.90
19200;DHT22;9732;52.498;5.408;2023-04-07T02:59:39;9.30;99.90
19200;DHT22;9732;52.498;5.408;2023-04-07T03:02:06;9.40;99.90
19200;DHT22;9732;52.498;5.408;2023-04-07T03:04:33;9.30;99.90
19200;DHT22;9732;52.498;5.408;2023-04-07T03:07:00;9.30;99.90
19200;DHT22;9732;52.498;5.408;2023-04-07T03:09:28;9.30;99.90
19200;DHT22;9732;52.498;5.408;2023-04-07T03:11:56;9.30;99.90
19200;DHT22;9732;52.498;5.408;2023-04-07T03:14:24;9.40;99.90
19200;DHT22;9732;52.498;5.408;2023-04-07T03:16:50;9.30;99.90
19200;DHT22;9732;52.498;5.408;2023-04-07T03:19:17;9.30;99.90
19200;DHT22;9732;52.498;5.408;2023-04-07T03:21:44;9.30;99.90
19200;DHT22;9732;52.498;5.408;2023-04-07T03:24:11;9.30;99.90
19200;DHT22;9732;52.498;5.408;2023-04-07T03:26:39;9.30;99.90
19200;DHT22;9732;52.498;5.408;2023-04-07T03:29:07;9.30;99.90
19200;DHT22;9732;52.498;5.408;2023-04-07T03:31:34;9.30;99.90
19200;DHT22;9732;52.498;5.408;2023-04-07T03:34:02;9.30;99.90
19200;DHT22;9732;52.498;5.408;2023-04-07T03:36:30;9.30;99.90
19200;DHT22;9732;52.498;5.408;2023-04-07T03:38:57;9.30;99.90
19200;DHT22;9732;52.498;5.408;2023-04-07T03:41:24;9.30;99.90
19200;DHT22;9732;52.498;5.408;2023-04-07T03:43:51;9.20;99.90
19200;DHT22;9732;52.498;5.408;2023-04-07T03:46:20;9.20;99.90
19200;DHT22;9732;52.498;5.408;2023-04-07T03:48:47;9.20;99.90
19200;DHT22;9732;52.498;5.408;2023-04-07T03:51:14;9.20;99.90
19200;DHT22;9732;52.498;5.408;2023-04-07T03:53:41;9.20;99.90
19200;DHT22;9732;52.498;5.408;2023-04-07T03:56:08;9.20;99.90
19200;DHT22;9732;52.498;5.408;2023-04-07T03:58:35;9.20;99.90
19200;DHT22;9732;52.498;5.408;2023-04-07T04:01:03;9.20;99.90
19200;DHT22;9732;52.498;5.408;2023-04-07T04:03:32;9.20;99.90
19200;DHT22;9732;52.498;5.408;2023-04-07T04:05:59;9.20;99.90
19200;DHT22;9732;52.498;5.408;2023-04-07T04:08:26;9.20;99.90
19200;DHT22;9732;52.498;5.408;2023-04-07T04:10:52;9.20;99.90
19200;DHT22;9732;52.498;5.408;2023-04-07T04:13:19;9.20;99.90
19200;DHT22;9732;52.498;5.408;2023-04-07T04:15:46;9.20;99.90
19200;DHT22;9732;52.498;5.408;2023-04-07T04:18:13;9.20;99.90
19200;DHT22;9732;52.498;5.408;2023-04-07T04:20:42;9.20;99.90
19200;DHT22;9732;52.498;5.408;2023-04-07T04:23:09;9.20;99.90
19200;DHT22;9732;52.498;5.408;2023-04-07T04:25:36;9.20;99.90
19200;DHT22;9732;52.498;5.408;2023-04-07T04:28:04;9.20;99.90
19200;DHT22;9732;52.498;5.408;2023-04-07T04:30:33;9.10;99.90
19200;DHT22;9732;52.498;5.408;2023-04-07T04:33:00;9.10;99.90
19200;DHT22;9732;52.498;5.408;2023-04-07T04:35:28;9.10;99.90
19200;DHT22;9732;52.498;5.408;2023-04-07T04:37:56;9.10;99.90
19200;DHT22;9732;52.498;5.408;2023-04-07T04:40:25;9.10;99.90
19200;DHT22;9732;52.498;5.408;2023-04-07T04:42:52;9.10;99.90
19200;DHT22;9732;52.498;5.408;2023-04-07T04:45:18;9.10;99.90
19200;DHT22;9732;52.498;5.408;2023-04-07T04:47:45;9.10;99.90
19200;DHT22;9732;52.498;5.408;2023-04-07T04:50:12;9.10;99.90
19200;DHT22;9732;52.498;5.408;2023-04-07T04:52:39;9.10;99.90
19200;DHT22;9732;52.498;5.408;2023-04-07T04:55:08;9.10;99.90
19200;DHT22;9732;52.498;5.408;2023-04-07T04:57:35;9.10;99.90
19200;DHT22;9732;52.498;5.408;2023-04-07T05:00:03;9.10;99.90
19200;DHT22;9732;52.498;5.408;2023-04-07T05:02:30;9.10;99.90
19200;DHT22;9732;52.498;5.408;2023-04-07T05:04:57;9.10;99.90
19200;DHT22;9732;52.498;5.408;2023-04-07T05:07:25;9.10;99.90
19200;DHT22;9732;52.498;5.408;2023-04-07T05:09:52;9.10;99.90
19200;DHT22;9732;52.498;5.408;2023-04-07T05:12:21;9.20;99.90
19200;DHT22;9732;52.498;5.408;2023-04-07T05:14:49;9.10;99.90
19200;DHT22;9732;52.498;5.408;2023-04-07T05:17:16;9.10;99.90
19200;DHT22;9732;52.498;5.408;2023-04-07T05:19:44;9.10;99.90
19200;DHT22;9732;52.498;5.408;2023-04-07T05:22:10;9.10;99.90
19200;DHT22;9732;52.498;5.408;2023-04-07T05:24:37;9.10;99.90
19200;DHT22;9732;52.498;5.408;2023-04-07T05:27:04;9.10;99.90
19200;DHT22;9732;52.498;5.408;2023-04-07T05:29:32;9.10;99.90
19200;DHT22;9732;52.498;5.408;2023-04-07T05:31:58;9.10;99.90
19200;DHT22;9732;52.498;5.408;2023-04-07T05:34:25;9.10;99.90
19200;DHT22;9732;52.498;5.408;2023-04-07T05:36:52;9.10;99.90
19200;DHT22;9732;52.498;5.408;2023-04-07T05:39:19;9.20;99.90
19200;DHT22;9732;52.498;5.408;2023-04-07T05:41:46;9.20;99.90
19200;DHT22;9732;52.498;5.408;2023-04-07T05:44:12;9.20;99.90
19200;DHT22;9732;52.498;5.408;2023-04-07T05:46:41;9.20;99.90
19200;DHT22;9732;52.498;5.408;2023-04-07T05:49:07;9.30;99.90
19200;DHT22;9732;52.498;5.408;2023-04-07T05:51:34;9.20;99.90
19200;DHT22;9732;52.498;5.408;2023-04-07T05:54:01;9.20;99.90
19200;DHT22;9732;52.498;5.408;2023-04-07T05:56:28;9.30;99.90
19200;DHT22;9732;52.498;5.408;2023-04-07T05:58:55;9.30;99.90
19200;DHT22;9732;52.498;5.408;2023-04-07T06:01:23;9.20;99.90
19200;DHT22;9732;52.498;5.408;2023-04-07T06:03:51;9.30;99.90
19200;DHT22;9732;52.498;5.408;2023-04-07T06:06:18;9.30;99.90
19200;DHT22;9732;52.498;5.408;2023-04-07T06:08:45;9.30;99.90
19200;DHT22;9732;52.498;5.408;2023-04-07T06:11:12;9.30;99.90
19200;DHT22;9732;52.498;5.408;2023-04-07T06:13:38;9.30;99.90
19200;DHT22;9732;52.498;5.408;2023-04-07T06:16:06;9.30;99.90
19200;DHT22;9732;52.498;5.408;2023-04-07T06:18:32;9.30;99.90
19200;DHT22;9732;52.498;5.408;2023-04-07T06:21:01;9.30;99.90
19200;DHT22;9732;52.498;5.408;2023-04-07T06:23:28;9.30;99.90
19200;DHT22;9732;52.498;5.408;2023-04-07T06:25:54;9.30;99.90
19200;DHT22;9732;52.498;5.408;2023-04-07T06:28:21;9.30;99.90
19200;DHT22;9732;52.498;5.408;2023-04-07T06:30:48;9.30;99.90
19200;DHT22;9732;52.498;5.408;2023-04-07T06:33:15;9.40;99.90
19200;DHT22;9732;52.498;5.408;2023-04-07T06:35:41;9.40;99.90
19200;DHT22;9732;52.498;5.408;2023-04-07T06:38:09;9.40;99.90
19200;DHT22;9732;52.498;5.408;2023-04-07T06:40:36;9.40;99.90
19200;DHT22;9732;52.498;5.408;2023-04-07T06:43:03;9.40;99.90
19200;DHT22;9732;52.498;5.408;2023-04-07T06:45:30;9.40;99.90
19200;DHT22;9732;52.498;5.408;2023-04-07T06:47:57;9.40;99.90
19200;DHT22;9732;52.498;5.408;2023-04-07T06:50:24;9.40;99.90
19200;DHT22;9732;52.498;5.408;2023-04-07T06:52:51;9.40;99.90
19200;DHT22;9732;52.498;5.408;2023-04-07T06:55:19;9.40;99.90
19200;DHT22;9732;52.498;5.408;2023-04-07T06:57:45;9.30;99.90
19200;DHT22;9732;52.498;5.408;2023-04-07T07:00:12;9.30;99.90
19200;DHT22;9732;52.498;5.408;2023-04-07T07:02:39;9.30;99.90
19200;DHT22;9732;52.498;5.408;2023-04-07T07:05:06;9.30;99.90
19200;DHT22;9732;52.498;5.408;2023-04-07T07:07:33;9.30;99.90
19200;DHT22;9732;52.498;5.408;2023-04-07T07:10:00;9.30;99.90
19200;DHT22;9732;52.498;5.408;2023-04-07T07:12:28;9.30;99.90
19200;DHT22;9732;52.498;5.408;2023-04-07T07:14:55;9.30;99.90
19200;DHT22;9732;52.498;5.408;2023-04-07T07:17:21;9.30;99.90
19200;DHT22;9732;52.498;5.408;2023-04-07T07:19:48;9.30;99.90
19200;DHT22;9732;52.498;5.408;2023-04-07T07:22:15;9.30;99.90
19200;DHT22;9732;52.498;5.408;2023-04-07T07:24:42;9.30;99.90
19200;DHT22;9732;52.498;5.408;2023-04-07T07:27:08;9.30;99.90
19200;DHT22;9732;52.498;5.408;2023-04-07T07:29:36;9.30;99.90
19200;DHT22;9732;52.498;5.408;2023-04-07T07:32:03;9.30;99.90
19200;DHT22;9732;52.498;5.408;2023-04-07T07:34:31;9.30;99.90
19200;DHT22;9732;52.498;5.408;2023-04-07T07:36:58;9.40;99.90
19200;DHT22;9732;52.498;5.408;2023-04-07T07:39:25;9.40;99.90
19200;DHT22;9732;52.498;5.408;2023-04-07T07:41:52;9.40;99.90
19200;DHT22;9732;52.498;5.408;2023-04-07T07:44:19;9.50;99.90
19200;DHT22;9732;52.498;5.408;2023-04-07T07:46:48;9.40;99.90
19200;DHT22;9732;52.498;5.408;2023-04-07T07:49:15;9.50;99.90
19200;DHT22;9732;52.498;5.408;2023-04-07T07:51:42;9.50;99.90
19200;DHT22;9732;52.498;5.408;2023-04-07T07:54:10;9.50;99.90
19200;DHT22;9732;52.498;5.408;2023-04-07T07:56:37;9.60;99.90
19200;DHT22;9732;52.498;5.408;2023-04-07T07:59:04;9.60;99.90
19200;DHT22;9732;52.498;5.408;2023-04-07T08:01:31;9.60;99.90
19200;DHT22;9732;52.498;5.408;2023-04-07T08:04:00;9.60;99.90
19200;DHT22;9732;52.498;5.408;2023-04-07T08:06:27;9.60;99.90
19200;DHT22;9732;52.498;5.408;2023-04-07T08:08:56;9.60;99.90
19200;DHT22;9732;52.498;5.408;2023-04-07T08:11:23;9.70;99.90
19200;DHT22;9732;52.498;5.408;2023-04-07T08:13:50;9.70;99.90
19200;DHT22;9732;52.498;5.408;2023-04-07T08:16:18;9.60;99.90
19200;DHT22;9732;52.498;5.408;2023-04-07T08:18:45;9.60;99.90
19200;DHT22;9732;52.498;5.408;2023-04-07T08:21:13;9.70;99.90
19200;DHT22;9732;52.498;5.408;2023-04-07T08:23:40;9.70;99.90
19200;DHT22;9732;52.498;5.408;2023-04-07T08:26:06;9.80;99.90
19200;DHT22;9732;52.498;5.408;2023-04-07T08:28:33;9.90;99.90
19200;DHT22;9732;52.498;5.408;2023-04-07T08:31:00;9.90;99.90
19200;DHT22;9732;52.498;5.408;2023-04-07T08:33:26;9.90;99.90
19200;DHT22;9732;52.498;5.408;2023-04-07T08:35:54;9.90;99.90
19200;DHT22;9732;52.498;5.408;2023-04-07T08:38:22;9.90;99.90
19200;DHT22;9732;52.498;5.408;2023-04-07T08:40:54;10.00;99.90
19200;DHT22;9732;52.498;5.408;2023-04-07T08:43:24;9.90;99.90
19200;DHT22;9732;52.498;5.408;2023-04-07T08:45:54;9.90;99.90
19200;DHT22;9732;52.498;5.408;2023-04-07T08:48:23;9.90;99.90
19200;DHT22;9732;52.498;5.408;2023-04-07T08:50:52;9.90;99.90
19200;DHT22;9732;52.498;5.408;2023-04-07T08:53:25;10.10;99.90
19200;DHT22;9732;52.498;5.408;2023-04-07T08:55:55;10.10;99.90
19200;DHT22;9732;52.498;5.408;2023-04-07T08:58:21;10.10;99.90
19200;DHT22;9732;52.498;5.408;2023-04-07T09:00:49;10.20;99.90
19200;DHT22;9732;52.498;5.408;2023-04-07T09:03:17;10.20;99.90
19200;DHT22;9732;52.498;5.408;2023-04-07T09:05:44;10.20;99.90
19200;DHT22;9732;52.498;5.408;2023-04-07T09:08:12;10.20;99.90
19200;DHT22;9732;52.498;5.408;2023-04-07T09:10:40;10.10;99.90
19200;DHT22;9732;52.498;5.408;2023-04-07T09:13:07;10.10;99.90
19200;DHT22;9732;52.498;5.408;2023-04-07T09:15:34;10.10;99.90
19200;DHT22;9732;52.498;5.408;2023-04-07T09:18:00;10.00;99.90
19200;DHT22;9732;52.498;5.408;2023-04-07T09:20:28;10.00;99.90
19200;DHT22;9732;52.498;5.408;2023-04-07T09:23:26;10.00;99.90
19200;DHT22;9732;52.498;5.408;2023-04-07T09:25:55;9.90;99.90
19200;DHT22;9732;52.498;5.408;2023-04-07T09:28:24;9.90;99.90
19200;DHT22;9732;52.498;5.408;2023-04-07T09:30:54;9.90;99.90
19200;DHT22;9732;52.498;5.408;2023-04-07T09:33:26;9.90;99.90
19200;DHT22;9732;52.498;5.408;2023-04-07T09:35:53;9.90;99.90
19200;DHT22;9732;52.498;5.408;2023-04-07T09:38:20;10.00;99.90
19200;DHT22;9732;52.498;5.408;2023-04-07T09:40:47;10.00;99.90
19200;DHT22;9732;52.498;5.408;2023-04-07T09:43:17;10.10;99.90
19200;DHT22;9732;52.498;5.408;2023-04-07T09:45:44;10.10;99.90
19200;DHT22;9732;52.498;5.408;2023-04-07T09:48:18;10.20;99.90
19200;DHT22;9732;52.498;5.408;2023-04-07T09:50:46;10.30;99.90
19200;DHT22;9732;52.498;5.408;2023-04-07T09:53:14;10.40;99.90
19200;DHT22;9732;52.498;5.408;2023-04-07T09:55:41;10.40;99.90
19200;DHT22;9732;52.498;5.408;2023-04-07T09:58:11;10.50;99.90
19200;DHT22;9732;52.498;5.408;2023-04-07T10:00:40;10.60;99.90
19200;DHT22;9732;52.498;5.408;2023-04-07T10:03:07;10.60;99.90
19200;DHT22;9732;52.498;5.408;2023-04-07T10:05:34;10.60;99.90
19200;DHT22;9732;52.498;5.408;2023-04-07T10:08:03;10.60;99.90
19200;DHT22;9732;52.498;5.408;2023-04-07T10:10:31;10.60;99.90
19200;DHT22;9732;52.498;5.408;2023-04-07T10:12:58;10.70;99.90
19200;DHT22;9732;52.498;5.408;2023-04-07T10:15:25;10.70;99.90
19200;DHT22;9732;52.498;5.408;2023-04-07T10:17:53;10.70;99.90
19200;DHT22;9732;52.498;5.408;2023-04-07T10:20:22;10.70;99.90
19200;DHT22;9732;52.498;5.408;2023-04-07T10:22:51;10.70;99.90
19200;DHT22;9732;52.498;5.408;2023-04-07T10:25:21;10.70;99.90
19200;DHT22;9732;52.498;5.408;2023-04-07T10:27:51;10.60;99.90
19200;DHT22;9732;52.498;5.408;2023-04-07T10:30:22;10.70;99.90
19200;DHT22;9732;52.498;5.408;2023-04-07T10:32:53;10.70;99.90
19200;DHT22;9732;52.498;5.408;2023-04-07T10:35:21;10.70;99.90
19200;DHT22;9732;52.498;5.408;2023-04-07T10:38:10;10.70;99.90
19200;DHT22;9732;52.498;5.408;2023-04-07T10:40:38;10.80;99.90
19200;DHT22;9732;52.498;5.408;2023-04-07T10:43:06;10.80;99.90
19200;DHT22;9732;52.498;5.408;2023-04-07T10:45:55;10.80;99.90
19200;DHT22;9732;52.498;5.408;2023-04-07T10:48:25;10.70;99.90
19200;DHT22;9732;52.498;5.408;2023-04-07T10:51:14;10.70;99.90
19200;DHT22;9732;52.498;5.408;2023-04-07T10:57:11;10.50;99.90
19200;DHT22;9732;52.498;5.408;2023-04-07T11:00:13;10.50;99.90
19200;DHT22;9732;52.498;5.408;2023-04-07T11:02:40;10.40;99.90
19200;DHT22;9732;52.498;5.408;2023-04-07T11:05:19;10.40;99.90
19200;DHT22;9732;52.498;5.408;2023-04-07T11:07:53;10.40;99.90
19200;DHT22;9732;52.498;5.408;2023-04-07T11:10:22;10.40;99.90
19200;DHT22;9732;52.498;5.408;2023-04-07T11:13:13;10.40;99.90
19200;DHT22;9732;52.498;5.408;2023-04-07T11:15:40;10.40;99.90
19200;DHT22;9732;52.498;5.408;2023-04-07T11:18:12;10.40;99.90
19200;DHT22;9732;52.498;5.408;2023-04-07T11:20:49;10.40;99.90
19200;DHT22;9732;52.498;5.408;2023-04-07T11:23:17;10.50;99.90
19200;DHT22;9732;52.498;5.408;2023-04-07T11:25:46;10.60;99.90
19200;DHT22;9732;52.498;5.408;2023-04-07T11:28:14;10.60;99.90
19200;DHT22;9732;52.498;5.408;2023-04-07T11:30:45;10.70;99.90
19200;DHT22;9732;52.498;5.408;2023-04-07T11:33:15;10.60;99.90
19200;DHT22;9732;52.498;5.408;2023-04-07T11:35:54;10.60;99.90
19200;DHT22;9732;52.498;5.408;2023-04-07T11:38:22;10.70;99.90
19200;DHT22;9732;52.498;5.408;2023-04-07T11:40:50;10.70;99.90
19200;DHT22;9732;52.498;5.408;2023-04-07T11:43:19;10.70;99.90
19200;DHT22;9732;52.498;5.408;2023-04-07T11:46:02;10.80;99.90
19200;DHT22;9732;52.498;5.408;2023-04-07T11:48:30;10.80;99.90
19200;DHT22;9732;52.498;5.408;2023-04-07T11:50:59;10.80;99.90
19200;DHT22;9732;52.498;5.408;2023-04-07T11:53:27;10.90;99.90
19200;DHT22;9732;52.498;5.408;2023-04-07T11:56:05;10.90;99.90
19200;DHT22;9732;52.498;5.408;2023-04-07T11:58:34;10.90;99.90
19200;DHT22;9732;52.498;5.408;2023-04-07T12:01:04;10.90;99.90
19200;DHT22;9732;52.498;5.408;2023-04-07T12:03:31;10.80;99.90
19200;DHT22;9732;52.498;5.408;2023-04-07T12:06:00;10.80;99.90
19200;DHT22;9732;52.498;5.408;2023-04-07T12:08:38;10.80;99.90
19200;DHT22;9732;52.498;5.408;2023-04-07T12:11:05;10.90;99.90
19200;DHT22;9732;52.498;5.408;2023-04-07T12:13:32;10.80;99.90
19200;DHT22;9732;52.498;5.408;2023-04-07T12:15:59;10.80;99.90
19200;DHT22;9732;52.498;5.408;2023-04-07T12:18:27;10.80;99.90
19200;DHT22;9732;52.498;5.408;2023-04-07T12:20:54;10.80;99.90
19200;DHT22;9732;52.498;5.408;2023-04-07T12:23:24;10.80;99.90
19200;DHT22;9732;52.498;5.408;2023-04-07T12:25:51;10.70;99.90
19200;DHT22;9732;52.498;5.408;2023-04-07T12:28:18;10.70;99.90
19200;DHT22;9732;52.498;5.408;2023-04-07T12:30:45;10.70;99.90
19200;DHT22;9732;52.498;5.408;2023-04-07T12:33:11;10.80;99.90
19200;DHT22;9732;52.498;5.408;2023-04-07T12:35:38;10.70;99.90
19200;DHT22;9732;52.498;5.408;2023-04-07T12:38:05;10.70;99.90
19200;DHT22;9732;52.498;5.408;2023-04-07T12:40:34;10.70;99.90
19200;DHT22;9732;52.498;5.408;2023-04-07T12:43:02;10.60;99.90
19200;DHT22;9732;52.498;5.408;2023-04-07T12:45:28;10.60;99.90
19200;DHT22;9732;52.498;5.408;2023-04-07T12:47:56;10.60;99.90
19200;DHT22;9732;52.498;5.408;2023-04-07T12:50:23;10.60;99.90
19200;DHT22;9732;52.498;5.408;2023-04-07T12:52:51;10.60;99.90
19200;DHT22;9732;52.498;5.408;2023-04-07T12:55:18;10.60;99.90
19200;DHT22;9732;52.498;5.408;2023-04-07T12:57:46;10.60;99.90
19200;DHT22;9732;52.498;5.408;2023-04-07T13:00:13;10.70;99.90
19200;DHT22;9732;52.498;5.408;2023-04-07T13:02:41;10.70;99.90
19200;DHT22;9732;52.498;5.408;2023-04-07T13:05:08;10.80;99.90
19200;DHT22;9732;52.498;5.408;2023-04-07T13:07:35;10.70;99.90
19200;DHT22;9732;52.498;5.408;2023-04-07T13:10:02;10.80;99.90
19200;DHT22;9732;52.498;5.408;2023-04-07T13:12:30;10.80;99.90
19200;DHT22;9732;52.498;5.408;2023-04-07T13:14:58;10.90;99.90
19200;DHT22;9732;52.498;5.408;2023-04-07T13:17:25;10.80;99.90
19200;DHT22;9732;52.498;5.408;2023-04-07T13:19:53;10.80;99.90
19200;DHT22;9732;52.498;5.408;2023-04-07T13:22:20;10.80;99.90
19200;DHT22;9732;52.498;5.408;2023-04-07T13:24:46;10.80;99.90
19200;DHT22;9732;52.498;5.408;2023-04-07T13:27:13;10.80;99.90
19200;DHT22;9732;52.498;5.408;2023-04-07T13:29:40;10.80;99.90
19200;DHT22;9732;52.498;5.408;2023-04-07T13:32:09;10.80;99.90
19200;DHT22;9732;52.498;5.408;2023-04-07T13:34:38;10.80;99.90
19200;DHT22;9732;52.498;5.408;2023-04-07T13:37:05;10.80;99.90
19200;DHT22;9732;52.498;5.408;2023-04-07T13:39:32;10.80;99.90
19200;DHT22;9732;52.498;5.408;2023-04-07T13:41:59;10.90;99.90
19200;DHT22;9732;52.498;5.408;2023-04-07T13:44:26;10.90;99.90
19200;DHT22;9732;52.498;5.408;2023-04-07T13:46:53;11.00;99.90
19200;DHT22;9732;52.498;5.408;2023-04-07T13:49:21;11.00;99.90
19200;DHT22;9732;52.498;5.408;2023-04-07T13:51:48;10.90;99.90
19200;DHT22;9732;52.498;5.408;2023-04-07T13:54:15;10.90;99.90
19200;DHT22;9732;52.498;5.408;2023-04-07T13:56:44;11.00;99.90
19200;DHT22;9732;52.498;5.408;2023-04-07T13:59:12;11.00;99.90
19200;DHT22;9732;52.498;5.408;2023-04-07T14:01:39;11.00;99.90
19200;DHT22;9732;52.498;5.408;2023-04-07T14:04:06;11.00;99.90
19200;DHT22;9732;52.498;5.408;2023-04-07T14:06:34;10.90;99.90
19200;DHT22;9732;52.498;5.408;2023-04-07T14:09:02;11.00;99.90
19200;DHT22;9732;52.498;5.408;2023-04-07T14:11:31;11.00;99.90
19200;DHT22;9732;52.498;5.408;2023-04-07T14:13:59;11.00;99.90
19200;DHT22;9732;52.498;5.408;2023-04-07T14:16:25;10.90;99.90
19200;DHT22;9732;52.498;5.408;2023-04-07T14:18:52;10.90;99.90
19200;DHT22;9732;52.498;5.408;2023-04-07T14:21:20;10.90;99.90
19200;DHT22;9732;52.498;5.408;2023-04-07T14:23:48;10.80;99.90
19200;DHT22;9732;52.498;5.408;2023-04-07T14:26:15;10.80;99.90
19200;DHT22;9732;52.498;5.408;2023-04-07T14:28:42;10.80;99.90
19200;DHT22;9732;52.498;5.408;2023-04-07T14:31:12;10.80;99.90
19200;DHT22;9732;52.498;5.408;2023-04-07T14:33:40;10.70;99.90
19200;DHT22;9732;52.498;5.408;2023-04-07T14:36:06;10.70;99.90
19200;DHT22;9732;52.498;5.408;2023-04-07T14:38:40;10.70;99.90
19200;DHT22;9732;52.498;5.408;2023-04-07T14:41:08;10.70;99.90
19200;DHT22;9732;52.498;5.408;2023-04-07T14:43:36;10.70;99.90
19200;DHT22;9732;52.498;5.408;2023-04-07T14:46:04;10.70;99.90
19200;DHT22;9732;52.498;5.408;2023-04-07T14:48:30;10.70;99.90
19200;DHT22;9732;52.498;5.408;2023-04-07T14:50:58;10.70;99.90
19200;DHT22;9732;52.498;5.408;2023-04-07T14:53:25;10.80;99.90
19200;DHT22;9732;52.498;5.408;2023-04-07T14:55:52;10.70;99.90
19200;DHT22;9732;52.498;5.408;2023-04-07T14:58:22;10.70;99.90
19200;DHT22;9732;52.498;5.408;2023-04-07T15:00:49;10.60;99.90
19200;DHT22;9732;52.498;5.408;2023-04-07T15:03:16;10.60;99.90
19200;DHT22;9732;52.498;5.408;2023-04-07T15:05:43;10.70;99.90
19200;DHT22;9732;52.498;5.408;2023-04-07T15:08:10;10.70;99.90
19200;DHT22;9732;52.498;5.408;2023-04-07T15:10:37;10.70;99.90
19200;DHT22;9732;52.498;5.408;2023-04-07T15:13:04;10.70;99.90
19200;DHT22;9732;52.498;5.408;2023-04-07T15:15:32;10.70;99.90
19200;DHT22;9732;52.498;5.408;2023-04-07T15:17:59;10.70;99.90
19200;DHT22;9732;52.498;5.408;2023-04-07T15:20:26;10.70;99.90
19200;DHT22;9732;52.498;5.408;2023-04-07T15:22:53;10.60;99.90
19200;DHT22;9732;52.498;5.408;2023-04-07T15:25:19;10.70;99.90
19200;DHT22;9732;52.498;5.408;2023-04-07T15:27:48;10.70;99.90
19200;DHT22;9732;52.498;5.408;2023-04-07T15:30:17;10.70;99.90
19200;DHT22;9732;52.498;5.408;2023-04-07T15:32:56;10.60;99.90
19200;DHT22;9732;52.498;5.408;2023-04-07T15:35:24;10.70;99.90
19200;DHT22;9732;52.498;5.408;2023-04-07T15:37:51;10.80;99.90
19200;DHT22;9732;52.498;5.408;2023-04-07T15:40:18;10.80;99.90
19200;DHT22;9732;52.498;5.408;2023-04-07T15:42:45;10.80;99.90
19200;DHT22;9732;52.498;5.408;2023-04-07T15:45:11;10.70;99.90
19200;DHT22;9732;52.498;5.408;2023-04-07T15:47:38;10.70;99.90
19200;DHT22;9732;52.498;5.408;2023-04-07T15:50:08;10.80;99.90
19200;DHT22;9732;52.498;5.408;2023-04-07T15:52:35;10.70;99.90
19200;DHT22;9732;52.498;5.408;2023-04-07T15:55:02;10.70;99.90
19200;DHT22;9732;52.498;5.408;2023-04-07T15:57:28;10.70;99.90
19200;DHT22;9732;52.498;5.408;2023-04-07T15:59:55;10.70;99.90
19200;DHT22;9732;52.498;5.408;2023-04-07T16:02:22;10.60;99.90
19200;DHT22;9732;52.498;5.408;2023-04-07T16:04:50;10.60;99.90